Iwanui, Waitara Historical Data
 
Daily Summary for August 17, 2018 Units:  Metric    English   Both
« Previous Day
Next Day »
Daily Weekly Monthly Yearly Custom
  Current: High: Low: Average:
Temperature: 8.9 °C 17.9 °C 8.9 °C 13.8 °C
Dew Point: 6.3 °C 12.9 °C 6.2 °C 9.9 °C
Humidity: 84% 92% 51% 78%
Wind Speed: 0.0km/h 23.3km/h 0.0km/h 9.4km/h
Wind Gust: 2.6km/h 36.7km/h - -
WindCalm - - WNW
Pressure: 1001.4 hPa 1001.4 hPa 999.3 hPa -
Precipitation: 3.6 mm      
Historical Graphs
 
 
Tabular Data for August 17, 2018
Time Temperature Dew Point Pressure Wind Wind Speed Wind Gust Humidity Rainfall Rate (Hourly)
00:04 11.9 °C 10.2 °C 1000.7 hPa NW 7.2 km/h 14.8 km/h 89% 4.6 mm
00:09 12.0 °C 10.1 °C 1000.6 hPa NW 8.7 km/h 17.2 km/h 88% 4.3 mm
00:14 12.0 °C 10.1 °C 1000.6 hPa NW 11.1 km/h 17.2 km/h 88% 3.8 mm
00:20 12.1 °C 10.2 °C 1000.5 hPa NW 7.2 km/h 17.2 km/h 88% 3.6 mm
00:24 12.3 °C 10.4 °C 1000.3 hPa NW 5.0 km/h 17.2 km/h 88% 2.8 mm
00:29 12.5 °C 10.6 °C 1000.3 hPa NW 7.2 km/h 14.8 km/h 88% 1.5 mm
00:34 12.7 °C 10.9 °C 1000.3 hPa WNW 11.1 km/h 18.3 km/h 89% 1.0 mm
00:39 13.4 °C 11.8 °C 1000.4 hPa WNW 11.1 km/h 27.0 km/h 90% 0.3 mm
00:44 13.7 °C 12.3 °C 1000.3 hPa WNW 9.7 km/h 27.0 km/h 91% 0.3 mm
00:49 14.0 °C 12.4 °C 1000.3 hPa NW 14.8 km/h 23.3 km/h 90% 0.0 mm
00:54 14.1 °C 12.7 °C 1000.3 hPa NNW 9.7 km/h 24.5 km/h 91% 0.0 mm
00:59 14.1 °C 12.7 °C 1000.3 hPa NW 13.4 km/h 29.4 km/h 91% 0.0 mm
01:04 14.1 °C 12.7 °C 1000.3 hPa NW 12.2 km/h 29.4 km/h 91% 0.0 mm
01:09 14.2 °C 12.8 °C 1000.3 hPa NW 12.2 km/h 27.0 km/h 91% 0.0 mm
01:14 14.1 °C 12.7 °C 1000.3 hPa NW 17.2 km/h 27.0 km/h 91% 0.0 mm
01:19 14.2 °C 12.8 °C 1000.4 hPa NW 14.8 km/h 25.6 km/h 91% 0.0 mm
01:24 14.2 °C 12.8 °C 1000.3 hPa NW 9.7 km/h 25.6 km/h 91% 0.0 mm
01:29 14.2 °C 12.8 °C 1000.5 hPa NNW 14.8 km/h 24.5 km/h 91% 0.0 mm
01:34 14.2 °C 12.8 °C 1000.4 hPa NNW 13.4 km/h 21.9 km/h 91% 0.0 mm
01:39 14.3 °C 12.8 °C 1000.3 hPa NW 14.8 km/h 25.6 km/h 91% 0.0 mm
01:44 14.3 °C 12.8 °C 1000.3 hPa NW 11.1 km/h 25.6 km/h 91% 0.0 mm
01:49 14.3 °C 12.8 °C 1000.2 hPa NW 15.8 km/h 31.7 km/h 91% 0.0 mm
01:54 14.3 °C 12.8 °C 1000.2 hPa NW 18.3 km/h 31.7 km/h 91% 0.0 mm
01:59 14.3 °C 12.8 °C 1000.1 hPa WNW 14.8 km/h 28.0 km/h 91% 0.0 mm
02:04 14.3 °C 12.8 °C 1000.0 hPa WNW 13.4 km/h 28.0 km/h 91% 0.0 mm
02:09 14.3 °C 12.8 °C 1000.2 hPa NW 17.2 km/h 28.0 km/h 91% 0.0 mm
02:15 14.3 °C 12.8 °C 1000.3 hPa NW 13.4 km/h 29.4 km/h 91% 0.0 mm
02:19 14.4 °C 12.9 °C 1000.3 hPa NW 11.1 km/h 29.4 km/h 91% 0.0 mm
02:24 14.3 °C 12.8 °C 1000.1 hPa NW 9.7 km/h 24.5 km/h 91% 0.0 mm
02:29 14.3 °C 12.8 °C 1000.1 hPa NW 14.8 km/h 24.5 km/h 91% 0.0 mm
02:34 14.3 °C 12.8 °C 1000.0 hPa NW 8.7 km/h 21.9 km/h 91% 0.0 mm
02:39 14.3 °C 12.8 °C 999.9 hPa NW 9.7 km/h 21.9 km/h 91% 0.0 mm
02:44 14.3 °C 12.8 °C 999.8 hPa NW 8.7 km/h 20.9 km/h 91% 0.0 mm
02:49 14.2 °C 12.8 °C 999.9 hPa NW 11.1 km/h 21.9 km/h 91% 0.0 mm
02:54 14.2 °C 12.8 °C 1000.0 hPa WNW 14.8 km/h 21.9 km/h 91% 0.0 mm
02:59 14.1 °C 12.7 °C 999.8 hPa WNW 13.4 km/h 20.9 km/h 91% 0.0 mm
03:04 14.1 °C 12.7 °C 999.8 hPa WNW 12.2 km/h 19.5 km/h 91% 0.0 mm
03:09 14.2 °C 12.8 °C 999.9 hPa WNW 12.2 km/h 19.5 km/h 91% 0.0 mm
03:15 14.2 °C 12.8 °C 999.7 hPa West 9.7 km/h 19.5 km/h 91% 0.0 mm
03:19 14.2 °C 12.8 °C 999.7 hPa WNW 5.0 km/h 19.5 km/h 91% 0.0 mm
03:24 14.2 °C 12.8 °C 999.5 hPa NW 7.2 km/h 17.2 km/h 91% 0.0 mm
03:29 14.2 °C 12.8 °C 999.5 hPa NW 9.7 km/h 20.9 km/h 91% 0.0 mm
03:34 14.1 °C 12.7 °C 999.5 hPa NW 7.2 km/h 24.5 km/h 91% 0.0 mm
03:39 14.1 °C 12.7 °C 999.6 hPa NW 12.2 km/h 24.5 km/h 91% 0.0 mm
03:44 14.1 °C 12.7 °C 999.3 hPa WNW 7.2 km/h 23.3 km/h 91% 0.0 mm
03:50 14.1 °C 12.7 °C 999.5 hPa WNW 11.1 km/h 23.3 km/h 91% 0.0 mm
03:54 14.2 °C 12.8 °C 999.3 hPa NW 5.0 km/h 18.3 km/h 91% 0.0 mm
03:59 14.1 °C 12.7 °C 999.4 hPa WNW 7.2 km/h 18.3 km/h 91% 0.0 mm
04:04 14.0 °C 12.6 °C 999.4 hPa WNW 7.2 km/h 15.8 km/h 91% 0.0 mm
04:09 13.9 °C 12.6 °C 999.5 hPa NW 11.1 km/h 18.3 km/h 92% 0.0 mm
04:14 13.9 °C 12.6 °C 999.5 hPa NW 9.7 km/h 18.3 km/h 92% 0.0 mm
04:19 13.8 °C 12.4 °C 999.5 hPa WNW 6.1 km/h 17.2 km/h 91% 0.0 mm
04:24 13.8 °C 12.4 °C 999.5 hPa WNW 6.1 km/h 15.8 km/h 91% 0.0 mm
04:29 13.8 °C 12.4 °C 999.7 hPa WNW 8.7 km/h 20.9 km/h 91% 0.0 mm
04:35 13.9 °C 12.4 °C 999.6 hPa WNW 7.2 km/h 20.9 km/h 91% 0.0 mm
04:39 13.8 °C 12.4 °C 999.5 hPa West 6.1 km/h 15.8 km/h 91% 0.0 mm
04:44 13.9 °C 12.4 °C 999.6 hPa WNW 3.5 km/h 15.8 km/h 91% 0.0 mm
04:49 13.9 °C 12.3 °C 999.6 hPa WNW 7.2 km/h 13.4 km/h 90% 0.0 mm
04:54 13.8 °C 12.2 °C 999.7 hPa WNW 6.1 km/h 18.3 km/h 90% 0.0 mm
04:59 13.8 °C 12.2 °C 999.6 hPa NW 9.7 km/h 19.5 km/h 90% 0.3 mm
05:04 13.5 °C 11.9 °C 999.4 hPa WNW 8.7 km/h 19.5 km/h 90% 0.3 mm
05:09 13.3 °C 11.6 °C 999.5 hPa WNW 6.1 km/h 17.2 km/h 89% 0.3 mm
05:14 12.9 °C 10.9 °C 999.6 hPa NW 8.7 km/h 15.8 km/h 88% 0.3 mm
05:19 12.6 °C 10.7 °C 999.5 hPa WNW 6.1 km/h 15.8 km/h 88% 0.3 mm
05:25 12.5 °C 10.6 °C 999.5 hPa West 7.2 km/h 14.8 km/h 88% 0.3 mm
05:29 12.6 °C 10.5 °C 999.4 hPa West 6.1 km/h 13.4 km/h 87% 0.3 mm
05:35 12.6 °C 10.5 °C 999.4 hPa West 7.2 km/h 13.4 km/h 87% 0.3 mm
05:39 12.6 °C 10.3 °C 999.6 hPa West 7.2 km/h 13.4 km/h 86% 0.3 mm
05:44 12.6 °C 10.3 °C 999.6 hPa West 3.5 km/h 13.4 km/h 86% 0.3 mm
05:49 12.6 °C 10.3 °C 999.7 hPa WNW 6.1 km/h 12.2 km/h 86% 0.3 mm
05:54 12.6 °C 10.3 °C 999.7 hPa West 7.2 km/h 12.2 km/h 86% 0.3 mm
05:59 12.7 °C 10.4 °C 999.6 hPa WNW 9.7 km/h 14.8 km/h 86% 0.0 mm
06:05 12.8 °C 10.5 °C 999.5 hPa WNW 6.1 km/h 14.8 km/h 86% 0.0 mm
06:09 12.9 °C 10.6 °C 999.7 hPa WNW 6.1 km/h 13.4 km/h 86% 0.0 mm
06:14 12.9 °C 10.6 °C 999.8 hPa WNW 8.7 km/h 17.2 km/h 86% 0.0 mm
06:19 13.0 °C 10.7 °C 999.8 hPa West 6.1 km/h 17.2 km/h 86% 0.0 mm
06:25 13.1 °C 10.8 °C 999.7 hPa WNW 7.2 km/h 12.2 km/h 86% 0.0 mm
06:29 13.2 °C 10.9 °C 999.8 hPa WNW 6.1 km/h 12.2 km/h 86% 0.0 mm
06:35 13.3 °C 11.0 °C 999.5 hPa NW 6.1 km/h 12.2 km/h 86% 0.0 mm
06:39 13.3 °C 11.0 °C 999.5 hPa NNW 8.7 km/h 14.8 km/h 86% 0.0 mm
06:44 13.3 °C 11.0 °C 999.5 hPa NW 6.1 km/h 14.8 km/h 86% 0.0 mm
06:49 13.3 °C 11.0 °C 999.3 hPa NW 7.2 km/h 19.5 km/h 86% 0.0 mm
06:54 13.3 °C 10.8 °C 999.4 hPa NW 9.7 km/h 19.5 km/h 85% 0.0 mm
06:59 13.3 °C 10.8 °C 999.3 hPa NW 6.1 km/h 12.2 km/h 85% 0.0 mm
07:04 13.2 °C 10.7 °C 999.3 hPa NW 7.2 km/h 13.4 km/h 85% 0.0 mm
07:09 13.3 °C 10.8 °C 999.3 hPa NW 3.5 km/h 13.4 km/h 85% 0.0 mm
07:14 13.3 °C 10.8 °C 999.3 hPa NW 5.0 km/h 11.1 km/h 85% 0.0 mm
07:19 13.2 °C 10.7 °C 999.5 hPa NW 5.0 km/h 8.7 km/h 85% 0.0 mm
07:24 13.3 °C 10.8 °C 999.7 hPa WNW 5.0 km/h 8.7 km/h 85% 0.0 mm
07:29 13.3 °C 11.0 °C 999.8 hPa WNW 6.1 km/h 12.2 km/h 86% 0.0 mm
07:34 13.4 °C 11.1 °C 999.9 hPa WNW 8.7 km/h 17.2 km/h 86% 0.0 mm
07:39 13.4 °C 11.1 °C 1000.0 hPa West 6.1 km/h 17.2 km/h 86% 0.0 mm
07:44 13.5 °C 11.1 °C 999.9 hPa West 6.1 km/h 14.8 km/h 85% 0.0 mm
07:50 13.5 °C 11.1 °C 999.9 hPa WNW 5.0 km/h 14.8 km/h 85% 0.0 mm
07:54 13.6 °C 11.1 °C 999.9 hPa WNW 8.7 km/h 14.8 km/h 85% 0.0 mm
07:59 13.6 °C 11.1 °C 1000.0 hPa West 7.2 km/h 18.3 km/h 85% 0.0 mm
08:04 13.7 °C 11.2 °C 1000.0 hPa WNW 5.0 km/h 18.3 km/h 85% 0.0 mm
08:09 13.7 °C 11.2 °C 1000.0 hPa WNW 8.7 km/h 14.8 km/h 85% 0.0 mm
08:14 13.7 °C 11.2 °C 1000.0 hPa WSW 12.2 km/h 15.8 km/h 85% 0.0 mm
08:19 13.7 °C 11.2 °C 1000.1 hPa West 9.7 km/h 15.8 km/h 85% 0.0 mm
08:24 13.7 °C 11.2 °C 1000.1 hPa WNW 8.7 km/h 15.8 km/h 85% 0.0 mm
08:29 13.7 °C 11.2 °C 1000.1 hPa West 6.1 km/h 15.8 km/h 85% 0.0 mm
08:35 13.7 °C 11.2 °C 1000.1 hPa West 7.2 km/h 14.8 km/h 85% 0.0 mm
08:40 13.7 °C 11.2 °C 1000.1 hPa West 5.0 km/h 14.8 km/h 85% 0.0 mm
08:44 13.7 °C 11.2 °C 1000.1 hPa West 8.7 km/h 14.8 km/h 85% 0.0 mm
08:50 13.7 °C 11.2 °C 1000.1 hPa WSW 7.2 km/h 14.8 km/h 85% 0.0 mm
08:54 13.7 °C 11.2 °C 1000.2 hPa WSW 7.2 km/h 13.4 km/h 85% 0.0 mm
08:59 13.7 °C 11.2 °C 1000.2 hPa West 7.2 km/h 14.8 km/h 85% 0.0 mm
09:05 13.6 °C 11.1 °C 1000.1 hPa West 8.7 km/h 14.8 km/h 85% 0.0 mm
09:09 13.6 °C 11.1 °C 1000.1 hPa WNW 9.7 km/h 14.8 km/h 85% 0.0 mm
09:14 13.6 °C 11.3 °C 1000.1 hPa WNW 8.7 km/h 18.3 km/h 86% 0.0 mm
09:19 13.5 °C 11.2 °C 1000.2 hPa WNW 8.7 km/h 18.3 km/h 86% 0.3 mm
09:25 13.5 °C 11.2 °C 1000.2 hPa WNW 8.7 km/h 17.2 km/h 86% 0.3 mm
09:29 13.5 °C 11.4 °C 1000.3 hPa NW 13.4 km/h 27.0 km/h 87% 0.3 mm
09:34 13.4 °C 11.3 °C 1000.3 hPa WNW 8.7 km/h 27.0 km/h 87% 0.3 mm
09:39 13.3 °C 11.2 °C 1000.2 hPa WSW 3.5 km/h 23.3 km/h 87% 0.3 mm
09:44 13.2 °C 11.1 °C 1000.1 hPa WSW 2.6 km/h 13.4 km/h 87% 0.3 mm
09:49 13.1 °C 11.0 °C 1000.2 hPa WSW 3.5 km/h 9.7 km/h 87% 0.3 mm
09:54 13.2 °C 11.1 °C 1000.2 hPa WSW 3.5 km/h 14.8 km/h 87% 0.3 mm
09:59 13.4 °C 11.3 °C 1000.1 hPa SW 6.1 km/h 14.8 km/h 87% 0.3 mm
10:04 13.7 °C 11.6 °C 1000.2 hPa West 6.1 km/h 14.8 km/h 87% 0.3 mm
10:09 13.8 °C 11.7 °C 1000.3 hPa West 7.2 km/h 14.8 km/h 87% 0.3 mm
10:14 13.9 °C 11.8 °C 1000.3 hPa West 7.2 km/h 13.4 km/h 87% 0.3 mm
10:19 14.0 °C 11.5 °C 1000.2 hPa West 13.4 km/h 23.3 km/h 85% 0.0 mm
10:24 14.0 °C 11.3 °C 1000.4 hPa West 11.1 km/h 23.3 km/h 84% 0.0 mm
10:30 14.1 °C 11.3 °C 1000.5 hPa West 12.2 km/h 23.3 km/h 83% 0.0 mm
10:35 14.1 °C 11.1 °C 1000.5 hPa West 7.2 km/h 21.9 km/h 82% 0.0 mm
10:40 14.2 °C 11.0 °C 1000.5 hPa West 8.7 km/h 21.9 km/h 81% 0.0 mm
10:44 14.3 °C 10.9 °C 1000.5 hPa West 9.7 km/h 17.2 km/h 80% 0.3 mm
10:49 14.2 °C 10.6 °C 1000.5 hPa WNW 17.2 km/h 24.5 km/h 79% 0.3 mm
10:55 14.1 °C 9.9 °C 1000.5 hPa WNW 11.1 km/h 24.5 km/h 76% 0.3 mm
10:59 14.1 °C 9.6 °C 1000.4 hPa West 8.7 km/h 24.5 km/h 74% 0.3 mm
11:04 14.3 °C 9.7 °C 1000.4 hPa WSW 6.1 km/h 23.3 km/h 74% 0.3 mm
11:09 14.4 °C 9.6 °C 1000.6 hPa WSW 8.7 km/h 25.6 km/h 73% 0.3 mm
11:14 14.4 °C 9.6 °C 1000.4 hPa West 13.4 km/h 25.6 km/h 73% 0.3 mm
11:19 14.4 °C 9.2 °C 1000.4 hPa West 15.8 km/h 23.3 km/h 71% 0.3 mm
11:24 14.4 °C 9.4 °C 1000.4 hPa West 6.1 km/h 23.3 km/h 72% 0.3 mm
11:29 14.9 °C 10.1 °C 1000.4 hPa West 8.7 km/h 21.9 km/h 73% 0.3 mm
11:34 15.2 °C 9.8 °C 1000.4 hPa WSW 13.4 km/h 25.6 km/h 70% 0.3 mm
11:39 17.0 °C 10.4 °C 1000.3 hPa WSW 18.3 km/h 25.6 km/h 65% 0.3 mm
11:44 17.3 °C 9.9 °C 1000.2 hPa WSW 19.5 km/h 25.6 km/h 62% 0.0 mm
11:50 17.0 °C 9.4 °C 1000.3 hPa WSW 13.4 km/h 28.0 km/h 61% 0.0 mm
11:54 15.6 °C 8.8 °C 1000.2 hPa West 12.2 km/h 28.0 km/h 64% 0.0 mm
11:59 15.2 °C 8.7 °C 1000.3 hPa WSW 17.2 km/h 25.6 km/h 65% 0.0 mm
12:04 15.1 °C 8.8 °C 1000.3 hPa WSW 11.1 km/h 25.6 km/h 66% 0.0 mm
12:09 15.2 °C 8.9 °C 1000.1 hPa West 11.1 km/h 28.0 km/h 66% 0.0 mm
12:14 15.9 °C 9.1 °C 1000.2 hPa West 19.5 km/h 28.0 km/h 64% 0.0 mm
12:20 17.1 °C 8.8 °C 1000.1 hPa West 14.8 km/h 29.4 km/h 58% 0.0 mm
12:24 17.1 °C 8.0 °C 1000.1 hPa WSW 9.7 km/h 29.4 km/h 55% 0.0 mm
12:29 17.3 °C 8.7 °C 1000.1 hPa WSW 15.8 km/h 28.0 km/h 57% 0.0 mm
12:34 17.7 °C 9.3 °C 1000.1 hPa West 19.5 km/h 28.0 km/h 58% 0.0 mm
12:39 17.7 °C 8.8 °C 1000.2 hPa West 21.9 km/h 29.4 km/h 56% 0.0 mm
12:44 17.5 °C 7.8 °C 1000.1 hPa West 23.3 km/h 30.6 km/h 53% 0.0 mm
12:49 17.4 °C 8.3 °C 1000.1 hPa WSW 14.8 km/h 30.6 km/h 55% 0.0 mm
12:54 17.5 °C 8.6 °C 1000.1 hPa WSW 21.9 km/h 30.6 km/h 56% 0.0 mm
12:59 17.7 °C 9.1 °C 1000.2 hPa WSW 13.4 km/h 29.4 km/h 57% 0.0 mm
13:04 17.9 °C 8.7 °C 1000.0 hPa West 15.8 km/h 29.4 km/h 55% 0.0 mm
13:09 17.9 °C 9.3 °C 1000.0 hPa West 12.2 km/h 24.5 km/h 57% 0.0 mm
13:14 17.7 °C 8.6 °C 1000.0 hPa West 21.9 km/h 29.4 km/h 55% 0.0 mm
13:19 17.8 °C 9.2 °C 1000.0 hPa West 12.2 km/h 29.4 km/h 57% 0.0 mm
13:24 17.9 °C 9.0 °C 1000.0 hPa West 14.8 km/h 29.4 km/h 56% 0.0 mm
13:29 17.6 °C 8.4 °C 1000.0 hPa West 17.2 km/h 29.4 km/h 55% 0.0 mm
13:35 17.3 °C 8.7 °C 1000.0 hPa West 12.2 km/h 30.6 km/h 57% 0.0 mm
13:39 17.8 °C 9.4 °C 1000.0 hPa West 12.2 km/h 30.6 km/h 58% 0.0 mm
13:44 17.8 °C 8.9 °C 1000.2 hPa West 19.5 km/h 28.0 km/h 56% 0.0 mm
13:49 17.6 °C 9.2 °C 1000.1 hPa West 19.5 km/h 29.4 km/h 58% 0.0 mm
13:55 17.3 °C 8.4 °C 1000.1 hPa West 11.1 km/h 30.6 km/h 56% 0.0 mm
13:59 17.5 °C 8.9 °C 1000.1 hPa WNW 17.2 km/h 30.6 km/h 57% 0.0 mm
14:04 17.5 °C 7.8 °C 1000.0 hPa WNW 20.9 km/h 29.4 km/h 53% 0.0 mm
14:09 17.3 °C 7.9 °C 1000.1 hPa West 20.9 km/h 30.6 km/h 54% 0.0 mm
14:14 17.4 °C 8.6 °C 1000.0 hPa WSW 12.2 km/h 30.6 km/h 56% 0.0 mm
14:20 17.7 °C 8.6 °C 999.9 hPa West 17.2 km/h 28.0 km/h 55% 0.0 mm
14:24 17.5 °C 7.3 °C 1000.1 hPa WNW 21.9 km/h 31.7 km/h 51% 0.0 mm
14:29 17.3 °C 7.6 °C 1000.2 hPa West 17.2 km/h 31.7 km/h 53% 0.0 mm
14:34 17.0 °C 7.9 °C 1000.2 hPa West 13.4 km/h 29.4 km/h 55% 0.0 mm
14:39 16.6 °C 8.1 °C 1000.1 hPa West 23.3 km/h 30.6 km/h 57% 0.0 mm
14:44 16.8 °C 8.5 °C 1000.1 hPa West 13.4 km/h 30.6 km/h 58% 0.0 mm
14:50 17.1 °C 7.7 °C 1000.2 hPa West 9.7 km/h 23.3 km/h 54% 0.0 mm
14:55 17.5 °C 7.8 °C 1000.2 hPa WSW 11.1 km/h 23.3 km/h 53% 0.0 mm
14:59 17.6 °C 7.6 °C 1000.2 hPa West 12.2 km/h 24.5 km/h 52% 0.0 mm
15:05 17.7 °C 7.7 °C 1000.3 hPa WSW 13.4 km/h 24.5 km/h 52% 0.0 mm
15:10 17.5 °C 7.3 °C 1000.2 hPa WSW 17.2 km/h 25.6 km/h 51% 0.0 mm
15:14 17.4 °C 7.7 °C 1000.3 hPa WSW 11.1 km/h 25.6 km/h 53% 0.0 mm
15:20 17.5 °C 7.8 °C 1000.2 hPa WSW 12.2 km/h 25.6 km/h 53% 0.0 mm
15:24 17.6 °C 8.2 °C 1000.3 hPa West 11.1 km/h 25.6 km/h 54% 0.0 mm
15:29 17.6 °C 7.6 °C 1000.4 hPa West 15.8 km/h 31.7 km/h 52% 0.0 mm
15:35 17.1 °C 7.2 °C 1000.5 hPa West 8.7 km/h 31.7 km/h 52% 0.0 mm
15:39 15.2 °C 6.5 °C 1000.3 hPa West 13.4 km/h 31.7 km/h 56% 0.0 mm
15:45 14.4 °C 7.0 °C 1000.4 hPa West 15.8 km/h 28.0 km/h 61% 0.0 mm
15:49 14.3 °C 7.6 °C 1000.4 hPa West 11.1 km/h 28.0 km/h 64% 0.0 mm
15:54 14.4 °C 8.1 °C 1000.4 hPa West 7.2 km/h 28.0 km/h 66% 0.0 mm
15:59 15.5 °C 7.8 °C 1000.4 hPa West 7.2 km/h 18.3 km/h 60% 0.0 mm
16:04 16.7 °C 8.7 °C 1000.5 hPa West 13.4 km/h 18.3 km/h 59% 0.0 mm
16:10 16.7 °C 8.7 °C 1000.5 hPa West 11.1 km/h 20.9 km/h 59% 0.0 mm
16:14 15.6 °C 7.9 °C 1000.5 hPa West 6.1 km/h 20.9 km/h 60% 0.0 mm
16:19 14.4 °C 7.2 °C 1000.5 hPa West 7.2 km/h 18.3 km/h 62% 0.0 mm
16:25 14.2 °C 7.5 °C 1000.7 hPa West 13.4 km/h 15.8 km/h 64% 0.0 mm
16:29 13.9 °C 7.4 °C 1000.6 hPa West 12.2 km/h 18.3 km/h 65% 0.0 mm
16:35 13.9 °C 7.7 °C 1000.6 hPa WSW 12.2 km/h 20.9 km/h 66% 0.0 mm
16:40 14.4 °C 8.1 °C 1000.5 hPa WSW 11.1 km/h 20.9 km/h 66% 0.0 mm
16:44 14.9 °C 8.2 °C 1000.5 hPa WSW 9.7 km/h 20.9 km/h 64% 0.0 mm
16:49 14.4 °C 7.4 °C 1000.5 hPa West 8.7 km/h 20.9 km/h 63% 0.0 mm
16:54 14.3 °C 7.6 °C 1000.6 hPa WSW 6.1 km/h 18.3 km/h 64% 0.0 mm
16:59 13.9 °C 7.9 °C 1000.8 hPa West 6.1 km/h 18.3 km/h 67% 0.0 mm
17:05 13.6 °C 7.8 °C 1000.9 hPa WNW 21.9 km/h 28.0 km/h 68% 0.0 mm
17:09 12.2 °C 6.7 °C 1001.0 hPa West 12.2 km/h 36.7 km/h 69% 1.5 mm
17:14 11.3 °C 6.2 °C 1000.9 hPa WSW 3.5 km/h 36.7 km/h 71% 1.8 mm
17:19 11.5 °C 7.1 °C 1000.8 hPa WSW 3.5 km/h 15.8 km/h 74% 1.8 mm
17:25 11.4 °C 7.3 °C 1000.9 hPa West 3.5 km/h 9.7 km/h 76% 1.8 mm
17:29 11.1 °C 7.2 °C 1000.9 hPa West 2.6 km/h 7.2 km/h 77% 1.8 mm
17:34 10.8 °C 7.1 °C 1000.8 hPa West 1.1 km/h 7.2 km/h 78% 1.8 mm
17:39 10.6 °C 7.1 °C 1000.8 hPa West 1.1 km/h 7.2 km/h 79% 1.8 mm
17:44 10.4 °C 7.1 °C 1000.9 hPa WNW 1.1 km/h 5.0 km/h 80% 1.8 mm
17:49 10.3 °C 7.0 °C 1000.8 hPa NW 1.1 km/h 5.0 km/h 80% 1.8 mm
17:54 10.3 °C 7.2 °C 1000.8 hPa NW 1.1 km/h 5.0 km/h 81% 1.8 mm
17:59 10.1 °C 7.2 °C 1000.7 hPa NW 2.6 km/h 5.0 km/h 82% 1.8 mm
18:04 10.1 °C 7.2 °C 1000.7 hPa Calm   5.0 km/h 82% 1.8 mm
18:09 10.1 °C 7.2 °C 1000.7 hPa Calm   5.0 km/h 82% 0.3 mm
18:14 10.1 °C 7.3 °C 1000.8 hPa NW 1.1 km/h 6.1 km/h 83% 0.0 mm
18:19 10.2 °C 7.4 °C 1000.9 hPa Calm   6.1 km/h 83% 0.0 mm
18:24 10.3 °C 7.6 °C 1000.9 hPa WNW 2.6 km/h 8.7 km/h 83% 0.0 mm
18:29 10.4 °C 7.8 °C 1000.9 hPa WNW 3.5 km/h 8.7 km/h 84% 0.0 mm
18:34 10.5 °C 8.1 °C 1000.9 hPa NW 3.5 km/h 9.7 km/h 85% 0.0 mm
18:39 10.8 °C 8.4 °C 1000.9 hPa WNW 3.5 km/h 14.8 km/h 85% 0.0 mm
18:44 10.7 °C 8.3 °C 1000.9 hPa West 5.0 km/h 14.8 km/h 85% 0.0 mm
18:49 10.6 °C 8.2 °C 1001.0 hPa West 6.1 km/h 11.1 km/h 85% 0.0 mm
18:54 10.6 °C 8.2 °C 1001.0 hPa WSW 6.1 km/h 12.2 km/h 85% 0.0 mm
18:59 10.6 °C 8.2 °C 1001.1 hPa WSW 3.5 km/h 12.2 km/h 85% 0.0 mm
19:04 10.5 °C 8.1 °C 1001.1 hPa WSW 2.6 km/h 9.7 km/h 85% 0.0 mm
19:09 10.5 °C 8.1 °C 1001.0 hPa WSW 5.0 km/h 9.7 km/h 85% 0.0 mm
19:14 10.5 °C 8.1 °C 1001.1 hPa West 7.2 km/h 11.1 km/h 85% 0.0 mm
19:19 10.6 °C 8.2 °C 1001.1 hPa West 11.1 km/h 14.8 km/h 85% 0.0 mm
19:24 10.7 °C 8.3 °C 1001.0 hPa West 5.0 km/h 14.8 km/h 85% 0.0 mm
19:30 10.7 °C 8.1 °C 1001.1 hPa West 5.0 km/h 14.8 km/h 84% 0.0 mm
19:34 10.8 °C 8.2 °C 1001.2 hPa West 3.5 km/h 12.2 km/h 84% 0.0 mm
19:39 10.9 °C 8.3 °C 1001.1 hPa West 8.7 km/h 14.8 km/h 84% 0.0 mm
19:45 11.0 °C 8.2 °C 1001.1 hPa WNW 7.2 km/h 14.8 km/h 83% 0.0 mm
19:49 11.1 °C 8.3 °C 1001.1 hPa WNW 3.5 km/h 14.8 km/h 83% 0.0 mm
19:55 11.2 °C 8.2 °C 1001.1 hPa WNW 7.2 km/h 12.2 km/h 82% 0.0 mm
19:59 11.5 °C 8.6 °C 1001.0 hPa WNW 3.5 km/h 12.2 km/h 82% 0.0 mm
20:04 11.6 °C 8.4 °C 1001.0 hPa WNW 6.1 km/h 13.4 km/h 81% 0.0 mm
20:09 11.8 °C 8.4 °C 1001.1 hPa WNW 9.7 km/h 17.2 km/h 80% 0.0 mm
20:14 11.9 °C 8.4 °C 1001.4 hPa WNW 15.8 km/h 29.4 km/h 79% 0.3 mm
20:19 11.5 °C 7.2 °C 1001.4 hPa West 13.4 km/h 29.4 km/h 75% 0.3 mm
20:24 11.1 °C 7.1 °C 1001.4 hPa West 14.8 km/h 28.0 km/h 76% 0.5 mm
20:29 10.7 °C 7.0 °C 1001.2 hPa West 11.1 km/h 28.0 km/h 78% 1.0 mm
20:34 10.5 °C 7.0 °C 1001.2 hPa West 5.0 km/h 21.9 km/h 79% 1.0 mm
20:40 10.4 °C 7.1 °C 1001.3 hPa WSW 5.0 km/h 15.8 km/h 80% 1.0 mm
20:44 10.3 °C 7.0 °C 1001.3 hPa WSW 3.5 km/h 12.2 km/h 80% 1.0 mm
20:49 10.2 °C 7.1 °C 1001.4 hPa WSW 5.0 km/h 11.1 km/h 81% 1.0 mm
20:54 10.0 °C 6.9 °C 1001.3 hPa WSW 3.5 km/h 11.1 km/h 81% 1.0 mm
20:59 9.8 °C 6.9 °C 1001.3 hPa West 3.5 km/h 8.7 km/h 82% 1.0 mm
21:05 9.6 °C 6.7 °C 1001.4 hPa WSW 2.6 km/h 6.1 km/h 82% 1.0 mm
21:09 9.4 °C 6.5 °C 1001.3 hPa SW 1.1 km/h 5.0 km/h 82% 1.0 mm
21:14 9.2 °C 6.3 °C 1001.4 hPa Calm   5.0 km/h 82% 0.5 mm
21:19 8.9 °C 6.3 °C 1001.4 hPa Calm   2.6 km/h 84% 0.5 mm
Waitara, Taranaki. New Zealand Historic Data
Compliments of Weather Underground - 2 mb